Time;durP1;ratioP1;P1;durP2;ratioP2;P2;SDS_P1;SDS_P2;PMS_P1;PMS_P2;Temp;Humidity;BMP_temperature;BMP_pressure;BME280_temperature;BME280_humidity;BME280_pressure;Samples;Min_cycle;Max_cycle;Signal;HPM_P1;HPM_P2
2023/11/05 00:01:27;;;;;;;28.08;16.38;;;256.50;2252.80;;;;;;5060344;28;20086;-73
2023/11/05 00:03:53;;;;;;;25.77;16.15;;;256.40;2252.80;;;;;;5080966;28;20513;-74
2023/11/05 00:06:19;;;;;;;27.65;16.00;;;256.40;2252.80;;;;;;5078253;28;20024;-74
2023/11/05 00:08:45;;;;;;;;;;;256.30;2252.80;;;;;;5077344;28;20059;-75
2023/11/05 00:11:11;;;;;;;30.75;16.65;;;256.20;2252.80;;;;;;5085892;28;19916;-73
2023/11/05 00:13:37;;;;;;;34.00;19.42;;;256.20;2252.80;;;;;;5077070;28;20042;-73
2023/11/05 00:16:02;;;;;;;;;;;256.30;2252.80;;;;;;5079880;28;20040;-73
2023/11/05 00:18:28;;;;;;;29.15;15.70;;;256.30;2252.80;;;;;;5081801;28;19912;-73
2023/11/05 00:20:54;;;;;;;;;;;256.20;2252.80;;;;;;5086014;28;20093;-73
2023/11/05 00:23:20;;;;;;;26.63;15.07;;;256.20;2252.80;;;;;;5088785;28;19908;-72
2023/11/05 00:25:46;;;;;;;29.77;17.30;;;256.20;2252.80;;;;;;5085491;28;20104;-74
2023/11/05 00:28:11;;;;;;;23.02;14.60;;;256.20;2252.80;;;;;;5092326;28;20095;-73
2023/11/05 00:30:38;;;;;;;23.08;14.27;;;256.20;2252.80;;;;;;5094663;28;20012;-75
2023/11/05 00:33:04;;;;;;;27.98;15.35;;;256.30;2252.80;;;;;;5094570;28;20073;-73
2023/11/05 00:35:30;;;;;;;26.48;13.80;;;256.40;2252.80;;;;;;5092495;28;20523;-74
2023/11/05 00:37:56;;;;;;;26.52;14.35;;;256.40;2252.80;;;;;;5082662;28;20029;-73
2023/11/05 00:40:21;;;;;;;22.08;13.57;;;256.50;2252.80;;;;;;5091736;28;20047;-74
2023/11/05 00:42:47;;;;;;;23.15;13.27;;;256.50;2252.80;;;;;;5109385;28;20093;-73
2023/11/05 00:45:13;;;;;;;22.83;12.98;;;256.50;2252.80;;;;;;5114950;28;20024;-73
2023/11/05 00:47:39;;;;;;;21.27;12.13;;;256.50;2252.80;;;;;;5114814;28;20027;-73
2023/11/05 00:50:05;;;;;;;21.00;13.32;;;256.60;2252.80;;;;;;5105746;28;20024;-73
2023/11/05 00:52:31;;;;;;;21.33;12.45;;;256.50;2252.80;;;;;;5109956;28;20103;-74
2023/11/05 00:54:57;;;;;;;20.35;12.27;;;256.40;2252.80;;;;;;5114309;28;20548;-74
2023/11/05 00:57:22;;;;;;;;;;;256.40;2252.80;;;;;;5099269;28;20381;-74
2023/11/05 00:59:48;;;;;;;23.70;11.55;;;256.40;2252.80;;;;;;5094140;28;19915;-74
2023/11/05 01:02:14;;;;;;;18.63;11.60;;;256.40;2252.80;;;;;;5107558;28;20099;-74
2023/11/05 01:04:39;;;;;;;23.90;10.75;;;256.30;2252.80;;;;;;5102718;28;20116;-74
2023/11/05 01:07:05;;;;;;;20.95;11.30;;;256.40;2252.80;;;;;;5112766;28;20028;-76
2023/11/05 01:09:31;;;;;;;17.35;10.68;;;256.30;2252.80;;;;;;5102859;28;20026;-77
2023/11/05 01:11:57;;;;;;;20.55;10.63;;;256.30;2252.80;;;;;;5112018;28;20028;-75
2023/11/05 01:14:23;;;;;;;14.73;8.50;;;256.20;2252.80;;;;;;5102914;28;20035;-76
2023/11/05 01:16:48;;;;;;;14.90;9.30;;;256.20;2252.80;;;;;;5114132;28;20039;-75
2023/11/05 01:19:15;;;;;;;17.08;8.65;;;256.20;2252.80;;;;;;5105208;28;20396;-76
2023/11/05 01:21:41;;;;;;;17.63;9.48;;;256.20;2252.80;;;;;;5095760;28;20028;-74
2023/11/05 01:24:07;;;;;;;17.50;9.95;;;256.20;2252.80;;;;;;5105383;28;20070;-75
2023/11/05 01:26:33;;;;;;;15.85;8.73;;;256.20;2252.80;;;;;;5095609;28;20024;-74
2023/11/05 01:29:00;;;;;;;14.68;9.00;;;256.20;2252.80;;;;;;5086785;28;20027;-74
2023/11/05 01:31:26;;;;;;;16.67;10.18;;;256.20;2252.80;;;;;;5095549;28;20389;-75
2023/11/05 01:33:52;;;;;;;17.30;11.02;;;256.20;2252.80;;;;;;5114108;28;20098;-77
2023/11/05 01:36:18;;;;;;;17.58;10.82;;;256.20;2252.80;;;;;;5095061;28;20122;-75
2023/11/05 01:38:44;;;;;;;21.13;11.70;;;256.20;2252.80;;;;;;5114043;28;20439;-75
2023/11/05 01:41:09;;;;;;;13.80;9.30;;;256.20;2252.80;;;;;;5110793;28;20027;-74
2023/11/05 01:43:35;;;;;;;15.05;8.68;;;256.20;2252.80;;;;;;5101715;28;20048;-73
2023/11/05 01:46:02;;;;;;;13.60;7.95;;;256.20;2252.80;;;;;;5112021;28;20031;-74
2023/11/05 01:48:28;;;;;;;11.93;7.53;;;256.30;2252.80;;;;;;5093157;28;20028;-74
2023/11/05 01:50:55;;;;;;;14.55;6.32;;;256.30;2252.80;;;;;;5106307;28;20020;-73
2023/11/05 01:53:23;;;;;;;12.95;6.90;;;256.30;2252.80;;;;;;5101841;28;20106;-77
2023/11/05 01:55:49;;;;;;;9.27;6.15;;;256.40;2252.80;;;;;;5099593;28;20157;-77
2023/11/05 01:58:17;;;;;;;8.95;5.63;;;256.50;2252.80;;;;;;5095549;28;20028;-74
2023/11/05 02:00:42;;;;;;;11.30;6.32;;;256.40;2252.80;;;;;;5111260;28;20058;-74
2023/11/05 02:03:08;;;;;;;14.32;8.70;;;256.60;2252.80;;;;;;5093230;28;20024;-74
2023/11/05 02:05:34;;;;;;;14.43;9.18;;;256.70;2252.80;;;;;;5106146;28;20027;-74
2023/11/05 02:08:01;;;;;;;23.70;13.85;;;256.80;2252.80;;;;;;5102415;28;20069;-74
2023/11/05 02:10:27;;;;;;;23.42;17.88;;;256.80;2252.80;;;;;;5097259;28;20030;-78
2023/11/05 02:12:57;;;;;;;34.38;22.55;;;256.90;2252.80;;;;;;5102443;28;20388;-78
2023/11/05 02:19:01;;;;;;;32.90;21.77;;;281.60;2278.40;;;;;;4606093;23;20056;-78
2023/11/05 02:21:33;;;;;;;27.63;22.75;;;281.70;2278.40;;;;;;5054780;28;20021;-76
2023/11/05 02:23:59;;;;;;;34.53;24.02;;;281.70;2278.40;;;;;;5071813;28;20021;-76
2023/11/05 02:26:25;;;;;;;32.47;23.83;;;281.80;2278.40;;;;;;5053325;28;20034;-76
2023/11/05 02:28:51;;;;;;;38.45;29.10;;;281.80;2278.40;;;;;;5071043;28;20024;-76
2023/11/05 02:31:16;;;;;;;39.55;28.55;;;281.80;2278.40;;;;;;5071675;28;20473;-75
2023/11/05 02:33:45;;;;;;;37.67;28.52;;;281.80;2278.40;;;;;;5071934;28;20025;-76
2023/11/05 02:36:12;;;;;;;33.83;24.63;;;281.80;2278.40;;;;;;5056841;28;20055;-76
2023/11/05 02:38:38;;;;;;;32.78;19.83;;;281.80;2278.40;;;;;;5071721;28;20024;-76
2023/11/05 02:41:06;;;;;;;25.20;16.65;;;281.90;2278.40;;;;;;5071735;28;20016;-79
2023/11/05 02:43:32;;;;;;;21.75;15.68;;;282.00;2278.40;;;;;;5071884;28;20025;-77
2023/11/05 02:45:59;;;;;;;24.73;17.52;;;282.00;2278.40;;;;;;5071315;28;20409;-76
2023/11/05 02:48:24;;;;;;;29.38;21.40;;;282.00;2278.40;;;;;;5053290;28;20041;-78
2023/11/05 02:50:50;;;;;;;39.83;22.90;;;282.00;2278.40;;;;;;5053569;28;20025;-77
2023/11/05 02:53:16;;;;;;;40.42;23.13;;;282.10;2278.40;;;;;;5074042;28;20073;-75
2023/11/05 02:55:42;;;;;;;39.90;25.85;;;282.10;2278.40;;;;;;5057698;28;20528;-75
2023/11/05 02:58:11;;;;;;;39.17;28.70;;;282.20;2278.40;;;;;;5057125;28;20641;-76
2023/11/05 03:00:37;;;;;;;35.67;24.42;;;282.20;2278.40;;;;;;5075269;28;20093;-75
2023/11/05 03:03:03;;;;;;;29.08;20.05;;;282.20;2278.40;;;;;;5057035;28;20033;-76
2023/11/05 03:05:29;;;;;;;21.88;13.48;;;282.20;2278.40;;;;;;5075457;28;20123;-76
2023/11/05 03:07:54;;;;;;;16.75;10.00;;;282.30;2278.40;;;;;;5057160;28;20485;-75
2023/11/05 03:10:20;;;;;;;10.65;6.00;;;282.30;2278.40;;;;;;5075256;28;20035;-75
2023/11/05 03:12:46;;;;;;;9.85;5.78;;;282.30;2278.40;;;;;;5075060;28;20050;-75
2023/11/05 03:15:11;;;;;;;11.27;5.30;;;282.30;2278.40;;;;;;5074798;28;20035;-76
2023/11/05 03:17:37;;;;;;;8.80;5.60;;;282.30;2278.40;;;;;;5075058;28;20035;-81
2023/11/05 03:20:07;;;;;;;8.82;6.00;;;282.40;2278.40;;;;;;5075500;28;20025;-75
2023/11/05 03:22:39;;;;;;;11.15;5.97;;;282.30;2278.40;;;;;;5075310;28;20063;-78
2023/11/05 03:25:06;;;;;;;8.15;5.78;;;282.30;2278.40;;;;;;5075077;28;20091;-79
2023/11/05 03:27:31;;;;;;;10.32;7.57;;;282.20;2278.40;;;;;;5061911;28;20029;-81
2023/11/05 03:29:58;;;;;;;13.50;8.27;;;282.20;2278.40;;;;;;5057070;28;20433;-77
2023/11/05 03:32:24;;;;;;;19.83;11.30;;;282.20;2278.40;;;;;;5075229;28;20047;-82
2023/11/05 03:34:50;;;;;;;24.23;16.35;;;282.20;2278.40;;;;;;5075259;28;20466;-81
2023/11/05 03:37:16;;;;;;;38.83;25.63;;;282.20;2278.40;;;;;;5074798;28;20475;-77
2023/11/05 03:39:43;;;;;;;46.25;30.00;;;282.20;2278.40;;;;;;5075147;28;20016;-76
2023/11/05 03:42:10;;;;;;;39.85;24.70;;;282.20;2278.40;;;;;;5074473;28;20009;-76
2023/11/05 03:44:36;;;;;;;32.20;21.25;;;282.30;2278.40;;;;;;5056568;28;20031;-76
2023/11/05 03:47:02;;;;;;;27.17;17.42;;;282.30;2278.40;;;;;;5074031;28;20024;-75
2023/11/05 03:49:28;;;;;;;25.45;16.75;;;282.30;2278.40;;;;;;5074674;28;20151;-76
2023/11/05 03:51:54;;;;;;;25.10;18.10;;;282.50;2278.40;;;;;;5074210;28;20484;-76
2023/11/05 03:54:20;;;;;;;22.55;15.40;;;282.30;2278.40;;;;;;5056161;28;20036;-75
2023/11/05 03:56:46;;;;;;;19.67;13.82;;;282.30;2278.40;;;;;;5074028;28;20040;-75
2023/11/05 03:59:12;;;;;;;19.67;12.18;;;282.30;2278.40;;;;;;5074260;28;20397;-76
2023/11/05 04:01:38;;;;;;;12.32;8.63;;;282.30;2278.40;;;;;;5074005;28;20020;-79
2023/11/05 04:04:04;;;;;;;8.77;6.53;;;282.30;2278.40;;;;;;5073960;28;20024;-75
2023/11/05 04:06:31;;;;;;;10.98;6.55;;;282.30;2278.40;;;;;;5056292;28;20036;-75
2023/11/05 04:08:56;;;;;;;6.43;4.90;;;282.40;2278.40;;;;;;5056208;28;20024;-75
2023/11/05 04:11:22;;;;;;;10.05;5.10;;;282.40;2278.40;;;;;;5073936;28;20098;-79
2023/11/05 04:13:48;;;;;;;9.25;6.45;;;282.40;2278.40;;;;;;5055971;28;20044;-76
2023/11/05 04:16:14;;;;;;;5.75;4.15;;;282.30;2278.40;;;;;;5073942;28;20040;-77
2023/11/05 04:18:41;;;;;;;7.38;4.95;;;282.30;2278.40;;;;;;5073727;28;20240;-76
2023/11/05 04:21:07;;;;;;;6.93;4.53;;;282.30;2278.40;;;;;;5056245;28;20052;-76
2023/11/05 04:23:33;;;;;;;6.40;4.82;;;282.30;2278.40;;;;;;5056008;28;20087;-79
2023/11/05 04:25:59;;;;;;;6.55;4.78;;;282.30;2278.40;;;;;;5074042;28;20456;-76
2023/11/05 04:28:25;;;;;;;8.48;6.00;;;282.20;2278.40;;;;;;5056095;28;20035;-77
2023/11/05 04:30:50;;;;;;;11.00;7.10;;;282.20;2278.40;;;;;;5055655;28;20032;-78
2023/11/05 04:33:16;;;;;;;13.48;9.20;;;282.20;2278.40;;;;;;5073990;28;20051;-75
2023/11/05 04:35:42;;;;;;;10.68;8.43;;;282.20;2278.40;;;;;;5073489;28;20059;-81
2023/11/05 04:38:08;;;;;;;9.65;6.22;;;282.30;2278.40;;;;;;5055947;28;20050;-76
2023/11/05 04:40:34;;;;;;;11.30;4.95;;;282.30;2278.40;;;;;;5073016;28;20029;-75
2023/11/05 04:42:59;;;;;;;6.20;4.05;;;282.30;2278.40;;;;;;5073327;28;20393;-75
2023/11/05 04:45:25;;;;;;;7.00;3.67;;;282.30;2278.40;;;;;;5072900;28;20020;-76
2023/11/05 04:47:51;;;;;;;8.98;3.85;;;282.40;2278.40;;;;;;5073182;28;20028;-76
2023/11/05 04:50:17;;;;;;;;;;;282.40;2278.40;;;;;;5073349;28;20029;-75
2023/11/05 04:52:42;;;;;;;10.07;5.22;;;282.50;2278.40;;;;;;5055463;28;19904;-76
2023/11/05 04:55:08;;;;;;;8.85;5.68;;;282.50;2278.40;;;;;;5054901;28;20390;-77
2023/11/05 04:57:34;;;;;;;7.75;4.93;;;282.50;2278.40;;;;;;5055260;28;20036;-76
2023/11/05 05:00:00;;;;;;;12.77;7.05;;;282.50;2278.40;;;;;;5073198;28;20474;-80
2023/11/05 05:02:25;;;;;;;13.10;8.23;;;282.50;2278.40;;;;;;5055021;28;20029;-76
2023/11/05 05:04:51;;;;;;;15.20;9.43;;;282.50;2278.40;;;;;;5073136;28;20498;-75
2023/11/05 05:07:17;;;;;;;18.08;10.70;;;307.20;2304.00;;;;;;5072772;28;20039;-76
2023/11/05 05:09:43;;;;;;;17.55;9.85;;;307.30;2304.00;;;;;;5072634;28;20143;-75
2023/11/05 05:12:09;;;;;;;15.48;10.02;;;307.20;2304.00;;;;;;5072944;28;20024;-75
2023/11/05 05:14:35;;;;;;;16.38;10.85;;;307.20;2304.00;;;;;;5072172;28;20106;-77
2023/11/05 05:17:01;;;;;;;21.08;13.30;;;307.20;2304.00;;;;;;5072649;28;20048;-75
2023/11/05 05:19:27;;;;;;;24.95;17.42;;;307.20;2304.00;;;;;;5072711;28;20044;-79
2023/11/05 05:21:52;;;;;;;31.20;23.33;;;307.20;2304.00;;;;;;5072827;28;20103;-79
2023/11/05 05:24:18;;;;;;;37.58;25.75;;;307.20;2304.00;;;;;;5072653;28;20016;-79
2023/11/05 05:26:44;;;;;;;40.78;25.00;;;307.20;2304.00;;;;;;5072831;28;20031;-77
2023/11/05 05:29:10;;;;;;;40.53;26.58;;;282.50;2278.40;;;;;;5072637;28;20100;-79
2023/11/05 05:31:36;;;;;;;52.67;32.17;;;282.50;2278.40;;;;;;5072908;28;20028;-76
2023/11/05 05:34:02;;;;;;;45.50;30.38;;;282.50;2278.40;;;;;;5072379;28;20351;-80
2023/11/05 05:36:28;;;;;;;45.05;26.88;;;282.50;2278.40;;;;;;5072001;28;20056;-76
2023/11/05 05:38:53;;;;;;;38.80;27.67;;;282.50;2278.40;;;;;;5072353;28;20470;-76
2023/11/05 05:41:19;;;;;;;32.95;21.80;;;282.50;2278.40;;;;;;5072625;28;20033;-76
2023/11/05 05:43:45;;;;;;;35.67;24.20;;;307.20;2304.00;;;;;;5072188;28;20162;-74
2023/11/05 05:46:17;;;;;;;32.67;21.90;;;307.20;2304.00;;;;;;5054463;28;20029;-75
2023/11/05 05:48:43;;;;;;;33.83;23.33;;;307.30;2304.00;;;;;;5053752;28;20040;-76
2023/11/05 05:51:12;;;;;;;35.97;23.23;;;307.30;2304.00;;;;;;5072340;28;20075;-77
2023/11/05 05:53:39;;;;;;;36.00;22.80;;;307.50;2304.00;;;;;;5068878;28;20019;-76
2023/11/05 05:56:05;;;;;;;29.52;20.63;;;307.60;2304.00;;;;;;5059145;28;20036;-74
2023/11/05 05:58:31;;;;;;;24.88;16.90;;;307.70;2304.00;;;;;;5045508;28;20386;-77
2023/11/05 06:00:57;;;;;;;33.55;22.52;;;307.80;2304.00;;;;;;5059665;28;20024;-79
2023/11/05 06:03:23;;;;;;;35.03;25.42;;;307.90;2304.00;;;;;;5041730;28;20025;-78
2023/11/05 06:05:49;;;;;;;33.92;22.20;;;308.00;2304.00;;;;;;5047378;28;20123;-78
2023/11/05 06:08:14;;;;;;;41.78;27.15;;;308.00;2304.00;;;;;;5042225;28;20028;-78
2023/11/05 06:10:41;;;;;;;29.80;21.02;;;308.00;2304.00;;;;;;5049309;28;20079;-78
2023/11/05 06:13:07;;;;;;;21.80;14.63;;;308.00;2304.00;;;;;;5048380;28;20024;-78
2023/11/05 06:15:33;;;;;;;19.30;12.57;;;308.00;2304.00;;;;;;5041878;28;20039;-78
2023/11/05 06:17:59;;;;;;;16.50;8.57;;;307.90;2304.00;;;;;;5040790;28;20060;-78
2023/11/05 06:20:24;;;;;;;7.95;6.63;;;307.90;2304.00;;;;;;5048957;28;20116;-78
2023/11/05 06:22:56;;;;;;;9.73;4.50;;;307.90;2304.00;;;;;;5056488;28;20033;-78
2023/11/05 06:25:22;;;;;;;5.47;2.97;;;307.80;2304.00;;;;;;5060851;28;20040;-78
2023/11/05 06:27:48;;;;;;;10.00;4.38;;;307.80;2304.00;;;;;;5061814;28;20433;-78
2023/11/05 06:30:15;;;;;;;4.00;3.50;;;307.80;2304.00;;;;;;5045222;28;20063;-77
2023/11/05 06:32:41;;;;;;;5.68;2.83;;;307.80;2304.00;;;;;;5049687;28;20029;-82
2023/11/05 06:35:07;;;;;;;8.32;4.55;;;307.80;2304.00;;;;;;5044427;28;20031;-79
2023/11/05 06:37:34;;;;;;;4.60;3.22;;;307.80;2304.00;;;;;;5054412;28;20145;-79
2023/11/05 06:40:01;;;;;;;6.38;2.90;;;307.80;2304.00;;;;;;5070901;28;20071;-77
2023/11/05 06:42:27;;;;;;;11.18;3.65;;;307.80;2304.00;;;;;;5042250;28;20025;-79
2023/11/05 06:44:53;;;;;;;7.70;4.47;;;307.80;2304.00;;;;;;5072935;28;20016;-76
2023/11/05 06:47:18;;;;;;;8.85;4.88;;;307.80;2304.00;;;;;;5058154;28;20025;-78
2023/11/05 06:49:44;;;;;;;11.98;4.57;;;307.80;2304.00;;;;;;5063271;28;20055;-78
2023/11/05 06:52:10;;;;;;;9.57;4.03;;;307.80;2304.00;;;;;;5053879;28;20037;-78
2023/11/05 06:54:36;;;;;;;6.60;3.15;;;307.80;2304.00;;;;;;5067226;28;20049;-79
2023/11/05 06:57:05;;;;;;;5.85;4.13;;;307.80;2304.00;;;;;;5041574;28;20086;-79
2023/11/05 06:59:31;;;;;;;4.22;3.05;;;307.90;2304.00;;;;;;5076898;28;20107;-82
2023/11/05 07:01:57;;;;;;;5.07;3.20;;;308.00;2304.00;;;;;;5048649;28;20028;-83
2023/11/05 07:04:22;;;;;;;5.13;2.58;;;308.00;2304.00;;;;;;5066939;28;20092;-78
2023/11/05 07:06:49;;;;;;;7.55;3.80;;;308.10;2304.00;;;;;;5064627;28;20104;-79
2023/11/05 07:09:15;;;;;;;5.88;3.55;;;332.80;2329.60;;;;;;5050784;28;20028;-82
2023/11/05 07:11:41;;;;;;;9.02;3.58;;;332.80;2329.60;;;;;;5067048;28;20029;-83
2023/11/05 07:14:07;;;;;;;6.35;3.85;;;332.80;2329.60;;;;;;5052262;28;20397;-82
2023/11/05 07:16:33;;;;;;;5.88;3.05;;;332.90;2329.60;;;;;;5047202;28;20098;-82
2023/11/05 07:18:59;;;;;;;6.95;6.25;;;332.90;2329.60;;;;;;5064965;28;20549;-83
2023/11/05 07:21:25;;;;;;;9.95;3.53;;;333.00;2329.60;;;;;;5058135;28;20127;-81
2023/11/05 07:23:51;;;;;;;8.85;6.03;;;333.00;2329.60;;;;;;5054526;28;20027;-80
2023/11/05 07:26:17;;;;;;;11.35;5.28;;;333.00;2329.60;;;;;;5046723;28;20025;-84
2023/11/05 07:28:44;;;;;;;13.95;5.00;;;333.10;2329.60;;;;;;5054361;28;20102;-80
2023/11/05 07:31:16;;;;;;;8.65;6.05;;;333.10;2329.60;;;;;;5069419;28;20409;-77
2023/11/05 07:33:45;;;;;;;9.75;7.20;;;333.10;2329.60;;;;;;5064226;28;20056;-79
2023/11/05 07:36:11;;;;;;;6.95;4.53;;;333.20;2329.60;;;;;;5043462;28;20071;-80
2023/11/05 07:38:38;;;;;;;10.23;3.00;;;333.30;2329.60;;;;;;5043664;28;20027;-79
2023/11/05 07:41:05;;;;;;;6.60;3.28;;;333.40;2329.60;;;;;;5062899;28;20582;-79
2023/11/05 07:43:31;;;;;;;6.97;2.72;;;333.50;2329.60;;;;;;5057742;28;20099;-79
2023/11/05 07:45:57;;;;;;;6.13;2.35;;;333.20;2329.60;;;;;;5058323;28;20024;-81
2023/11/05 07:48:23;;;;;;;4.90;2.55;;;333.60;2329.60;;;;;;5049230;28;20029;-79
2023/11/05 07:50:50;;;;;;;6.97;4.30;;;333.70;2329.60;;;;;;5040041;28;20028;-81
2023/11/05 07:53:16;;;;;;;8.65;5.65;;;333.70;2329.60;;;;;;5054674;28;20047;-81
2023/11/05 07:55:43;;;;;;;12.50;5.63;;;333.70;2329.60;;;;;;5050607;28;20039;-80
2023/11/05 07:58:09;;;;;;;8.45;4.50;;;333.70;2329.60;;;;;;5043959;28;20041;-81
2023/11/05 08:00:34;;;;;;;5.35;3.20;;;358.50;2329.60;;;;;;5043859;28;20501;-81
2023/11/05 08:03:02;;;;;;;4.93;3.38;;;358.50;2329.60;;;;;;5064514;28;20029;-77
2023/11/05 08:05:28;;;;;;;6.63;4.75;;;358.60;2329.60;;;;;;5078710;28;20043;-85
2023/11/05 08:07:54;;;;;;;9.50;6.55;;;358.70;2329.60;;;;;;5064827;28;20470;-84
2023/11/05 08:10:19;;;;;;;8.50;5.18;;;358.90;2329.60;;;;;;5055678;28;20029;-83
2023/11/05 08:12:45;;;;;;;9.85;6.63;;;358.90;2329.60;;;;;;5048507;28;20052;-83
2023/11/05 08:15:11;;;;;;;11.73;6.18;;;358.90;2329.60;;;;;;5045358;28;20048;-83
2023/11/05 08:17:37;;;;;;;14.13;8.25;;;359.00;2329.60;;;;;;5053542;28;20061;-77
2023/11/05 08:20:04;;;;;;;14.98;11.10;;;359.00;2329.60;;;;;;5044780;28;20419;-80
2023/11/05 08:22:30;;;;;;;19.08;12.50;;;359.00;2329.60;;;;;;5048323;28;20124;-78
2023/11/05 08:24:56;;;;;;;18.83;13.00;;;359.10;2329.60;;;;;;5058710;28;20032;-78
2023/11/05 08:27:21;;;;;;;17.27;12.50;;;359.20;2329.60;;;;;;5045933;28;20021;-81
2023/11/05 08:29:47;;;;;;;21.05;14.57;;;359.20;2329.60;;;;;;5049270;28;20039;-82
2023/11/05 08:32:13;;;;;;;18.77;12.02;;;359.20;2329.60;;;;;;5042896;28;20024;-81
2023/11/05 08:34:41;;;;;;;13.50;10.30;;;359.20;2329.60;;;;;;5053650;28;20023;-80
2023/11/05 08:37:07;;;;;;;9.77;7.60;;;359.20;2329.60;;;;;;5047857;28;20123;-82
2023/11/05 08:39:33;;;;;;;7.55;5.55;;;359.30;2329.60;;;;;;5041680;28;20021;-78
2023/11/05 08:41:59;;;;;;;6.05;3.67;;;384.00;2329.60;;;;;;5057416;28;20035;-78
2023/11/05 08:44:24;;;;;;;3.85;2.88;;;384.10;2329.60;;;;;;5042786;28;20029;-80
2023/11/05 08:46:51;;;;;;;6.10;3.97;;;384.20;2329.60;;;;;;5062072;28;20087;-78
2023/11/05 08:49:17;;;;;;;6.60;4.28;;;384.30;2329.60;;;;;;5050237;28;20447;-80
2023/11/05 08:51:44;;;;;;;6.97;4.78;;;384.30;2329.60;;;;;;5061622;28;20025;-79
2023/11/05 08:54:11;;;;;;;4.82;3.70;;;384.30;2329.60;;;;;;5046938;28;20055;-79
2023/11/05 08:56:39;;;;;;;7.32;4.45;;;384.30;2329.60;;;;;;5046121;28;20043;-78
2023/11/05 08:59:05;;;;;;;3.65;2.58;;;384.60;2329.60;;;;;;5052381;28;20028;-77
2023/11/05 09:01:31;;;;;;;7.30;4.03;;;384.40;2329.60;;;;;;5061897;28;20033;-77
2023/11/05 09:03:58;;;;;;;5.28;4.15;;;384.50;2329.60;;;;;;5067131;28;20107;-78
2023/11/05 09:06:24;;;;;;;6.95;2.83;;;384.60;2329.60;;;;;;5061373;28;20025;-79
2023/11/05 09:08:51;;;;;;;5.47;4.97;;;384.90;2329.60;;;;;;5060034;28;20025;-80
2023/11/05 09:11:17;;;;;;;4.05;3.75;;;409.60;2355.20;;;;;;5062727;28;20032;-78
2023/11/05 09:13:43;;;;;;;4.15;2.40;;;409.70;2355.20;;;;;;5046656;28;20099;-78
2023/11/05 09:16:10;;;;;;;6.32;3.85;;;409.80;2355.20;;;;;;5050429;28;20043;-77
2023/11/05 09:18:36;;;;;;;7.75;6.65;;;410.00;2355.20;;;;;;5043513;28;20059;-76
2023/11/05 09:21:04;;;;;;;5.78;5.30;;;410.00;2355.20;;;;;;5046158;28;20486;-81
2023/11/05 09:23:30;;;;;;;11.20;5.63;;;410.20;2355.20;;;;;;5045157;28;20056;-79
2023/11/05 09:25:55;;;;;;;8.38;4.10;;;410.30;2355.20;;;;;;5061525;28;20062;-77
2023/11/05 09:28:21;;;;;;;4.47;3.95;;;410.40;2355.20;;;;;;5058747;28;20029;-78
2023/11/05 09:30:47;;;;;;;5.68;5.13;;;410.50;2355.20;;;;;;5043330;28;20025;-78
2023/11/05 09:33:14;;;;;;;10.38;3.08;;;410.50;2355.20;;;;;;5041372;28;20031;-78
2023/11/05 09:35:40;;;;;;;5.75;2.75;;;435.30;2355.20;;;;;;5058621;28;20036;-80
2023/11/05 09:38:06;;;;;;;7.20;2.83;;;435.50;2355.20;;;;;;5064258;28;20040;-78
2023/11/05 09:40:33;;;;;;;4.88;4.40;;;435.70;2355.20;;;;;;5043325;28;20029;-78
2023/11/05 09:43:05;;;;;;;8.15;5.28;;;435.80;2355.20;;;;;;5046823;28;21005;-78
2023/11/05 09:45:35;;;;;;;5.28;3.17;;;435.90;2355.20;;;;;;5036087;28;20100;-78
2023/11/05 09:48:13;;;;;;;12.98;7.07;;;461.40;2380.80;;;;;;5041217;28;20116;-78
2023/11/05 09:50:41;;;;;;;9.60;3.70;;;461.00;2380.80;;;;;;5048577;28;20053;-78
2023/11/05 09:53:14;;;;;;;7.32;2.67;;;460.90;2380.80;;;;;;5051051;28;20055;-77
2023/11/05 09:55:41;;;;;;;4.65;2.55;;;460.80;2380.80;;;;;;5046742;28;20123;-78
2023/11/05 09:58:10;;;;;;;11.50;4.35;;;460.80;2380.80;;;;;;5048375;28;20036;-78
2023/11/05 10:00:37;;;;;;;5.55;4.65;;;460.90;2380.80;;;;;;5042382;28;20727;-79
2023/11/05 10:03:08;;;;;;;6.32;4.40;;;461.20;2380.80;;;;;;5067005;28;20025;-78
2023/11/05 10:05:36;;;;;;;9.50;2.65;;;461.00;2380.80;;;;;;5054884;28;20027;-82
2023/11/05 10:08:05;;;;;;;8.27;4.28;;;461.10;2380.80;;;;;;5048769;28;20127;-79
2023/11/05 10:10:31;;;;;;;4.38;3.28;;;461.20;2380.80;;;;;;5053747;28;20027;-82
2023/11/05 10:12:57;;;;;;;4.22;3.13;;;461.70;2380.80;;;;;;5049197;28;20037;-83
2023/11/05 10:15:24;;;;;;;7.35;6.13;;;487.10;2380.80;;;;;;5053812;28;20025;-85
2023/11/05 10:17:54;;;;;;;7.00;6.20;;;487.30;2380.80;;;;;;5042254;28;20124;-85
2023/11/05 10:20:21;;;;;;;6.50;2.97;;;512.10;2380.80;;;;;;5060846;28;20044;-83
2023/11/05 10:23:02;;;;;;;7.35;3.95;;;512.40;2380.80;;;;;;5046907;28;20094;-85
2023/11/05 10:25:29;;;;;;;9.57;2.60;;;512.70;2380.80;;;;;;5052995;28;20056;-85
2023/11/05 10:27:57;;;;;;;6.28;5.40;;;512.40;2380.80;;;;;;5046405;28;20028;-84
2023/11/05 10:30:23;;;;;;;9.15;3.28;;;512.80;2380.80;;;;;;5048665;28;20394;-81
2023/11/05 10:32:51;;;;;;;4.97;2.90;;;512.50;2380.80;;;;;;5057096;28;20063;-83
2023/11/05 10:35:19;;;;;;;7.50;5.20;;;512.70;2380.80;;;;;;5057595;28;20052;-82
2023/11/05 10:37:49;;;;;;;5.57;2.70;;;512.90;2355.20;;;;;;5042327;28;20033;-82
2023/11/05 10:40:16;;;;;;;4.43;2.92;;;537.70;2406.40;;;;;;5044964;28;20151;-80
2023/11/05 10:42:47;;;;;;;4.85;2.00;;;538.00;2329.60;;;;;;5041783;28;20021;-83
2023/11/05 10:45:14;;;;;;;8.55;2.63;;;538.10;2304.00;;;;;;5058901;28;20090;-80
2023/11/05 10:47:40;;;;;;;5.45;2.60;;;538.30;2278.40;;;;;;5049285;28;20020;-81
2023/11/05 10:50:19;;;;;;;5.78;3.92;;;538.50;2227.20;;;;;;5052004;28;20040;-77
2023/11/05 10:52:49;;;;;;;6.72;3.30;;;538.40;2201.60;;;;;;5055216;28;20029;-79
2023/11/05 10:55:16;;;;;;;3.58;1.98;;;538.50;2227.20;;;;;;5056549;28;20121;-78
2023/11/05 10:57:42;;;;;;;7.25;2.95;;;563.30;2227.20;;;;;;5056873;28;20045;-79
2023/11/05 11:00:17;;;;;;;7.72;3.53;;;563.20;2201.60;;;;;;5044466;28;20048;-81
2023/11/05 11:02:43;;;;;;;5.32;3.70;;;537.90;2278.40;;;;;;5044632;28;20032;-82
2023/11/05 11:05:15;;;;;;;6.22;3.70;;;512.90;2304.00;;;;;;5064501;28;20036;-81
2023/11/05 11:07:42;;;;;;;7.65;3.00;;;512.70;2355.20;;;;;;5054386;28;20116;-77
2023/11/05 11:10:10;;;;;;;5.70;3.22;;;512.60;2380.80;;;;;;5044268;28;20030;-80
2023/11/05 11:12:38;;;;;;;9.15;4.07;;;512.50;2380.80;;;;;;5058809;28;20033;-78
2023/11/05 11:15:08;;;;;;;9.70;3.50;;;512.50;2380.80;;;;;;5049865;28;20028;-82
2023/11/05 11:17:41;;;;;;;8.15;4.55;;;512.50;2380.80;;;;;;5069587;28;20405;-80
2023/11/05 11:20:09;;;;;;;7.35;4.50;;;512.50;2380.80;;;;;;5064330;28;20040;-80
2023/11/05 11:22:42;;;;;;;6.95;3.50;;;512.40;2380.80;;;;;;5052285;28;20024;-80
2023/11/05 11:25:09;;;;;;;6.80;2.58;;;512.10;2380.80;;;;;;5061222;28;20029;-79
2023/11/05 11:27:42;;;;;;;6.38;3.08;;;487.20;2380.80;;;;;;5045345;28;20032;-78
2023/11/05 11:30:09;;;;;;;10.00;2.72;;;487.00;2380.80;;;;;;5059488;28;20021;-77
2023/11/05 11:32:37;;;;;;;15.27;3.67;;;486.70;2380.80;;;;;;5059658;28;20052;-80
2023/11/05 11:35:04;;;;;;;18.23;5.85;;;461.00;2380.80;;;;;;5045282;28;20035;-80
2023/11/05 11:37:30;;;;;;;10.23;4.03;;;435.90;2355.20;;;;;;5048000;28;20115;-78
2023/11/05 11:39:58;;;;;;;10.60;3.40;;;435.60;2355.20;;;;;;5065382;28;20134;-82
2023/11/05 11:42:24;;;;;;;10.00;3.55;;;435.30;2355.20;;;;;;5048913;28;20048;-79
2023/11/05 11:44:51;;;;;;;6.75;3.15;;;435.20;2355.20;;;;;;5059795;28;20486;-81
2023/11/05 11:47:17;;;;;;;16.98;3.80;;;;;;;;;;5064817;28;20024;-81
2023/11/05 11:49:44;;;;;;;14.98;5.18;;;410.30;2355.20;;;;;;5058082;28;20371;-80
2023/11/05 11:52:10;;;;;;;12.40;4.30;;;410.20;2355.20;;;;;;5058624;28;20029;-83
2023/11/05 11:54:36;;;;;;;25.83;8.88;;;;;;;;;;5046291;28;20444;-79
2023/11/05 11:57:02;;;;;;;18.17;9.60;;;410.10;2355.20;;;;;;5064431;28;20086;-80
2023/11/05 11:59:28;;;;;;;14.75;4.28;;;410.00;2329.60;;;;;;5043408;28;20025;-78
2023/11/05 12:01:56;;;;;;;8.77;3.35;;;410.00;2355.20;;;;;;5044480;28;20021;-79
2023/11/05 12:04:24;;;;;;;12.60;3.50;;;410.00;2355.20;;;;;;5043538;28;20171;-82
2023/11/05 12:06:50;;;;;;;4.88;2.88;;;409.90;2355.20;;;;;;5063418;28;20077;-80
2023/11/05 12:09:20;;;;;;;5.40;2.88;;;409.90;2355.20;;;;;;5048990;28;20432;-79
2023/11/05 12:11:48;;;;;;;8.73;2.72;;;409.80;2355.20;;;;;;5041508;28;20044;-79